createdAt,value
2023-03-19T00:02:49.921Z,99248.53
2023-03-19T00:07:57.445Z,99257.10
2023-03-19T00:13:06.086Z,99259.88
2023-03-19T00:18:15.025Z,99258.66
2023-03-19T00:23:23.236Z,99254.35
2023-03-19T00:28:31.351Z,99260.48
2023-03-19T00:33:40.518Z,99260.08
2023-03-19T00:38:48.629Z,99260.70
2023-03-19T00:44:00.614Z,99266.12
2023-03-19T00:49:08.126Z,99260.73
2023-03-19T00:54:16.179Z,99253.20
2023-03-19T00:59:25.938Z,99251.09
2023-03-19T01:04:33.833Z,99251.86
2023-03-19T01:09:41.591Z,99247.90
2023-03-19T01:14:49.027Z,99237.54
2023-03-19T01:19:57.542Z,99238.29
2023-03-19T01:25:06.153Z,99234.84
2023-03-19T01:30:15.508Z,99240.68
2023-03-19T01:35:23.077Z,99240.43
2023-03-19T01:40:32.677Z,99237.38
2023-03-19T01:45:42.695Z,99241.81
2023-03-19T01:50:54.359Z,99242.88
2023-03-19T01:56:08.757Z,99234.21
2023-03-19T02:01:17.327Z,99239.52
2023-03-19T02:06:25.842Z,99240.65
2023-03-19T02:11:34.806Z,99242.60
2023-03-19T02:16:42.733Z,99242.90
2023-03-19T02:21:51.426Z,99236.40
2023-03-19T02:27:00.269Z,99233.35
2023-03-19T02:32:09.709Z,99237.98
2023-03-19T02:37:21.725Z,99241.71
2023-03-19T02:42:31.541Z,99251.70
2023-03-19T02:47:39.415Z,99253.90
2023-03-19T02:52:47.314Z,99261.20
2023-03-19T02:57:55.233Z,99260.04
2023-03-19T03:03:03.556Z,99258.89
2023-03-19T03:08:11.011Z,99264.09
2023-03-19T03:13:19.129Z,99263.34
2023-03-19T03:18:27.327Z,99264.98
2023-03-19T03:23:34.967Z,99271.05
2023-03-19T03:28:43.611Z,99264.79
2023-03-19T03:33:50.863Z,99261.71
2023-03-19T03:44:17.840Z,99267.60
2023-03-19T03:49:26.354Z,99271.89
2023-03-19T03:54:34.888Z,99278.73
2023-03-19T03:59:43.455Z,99284.66
2023-03-19T04:04:51.670Z,99284.88
2023-03-19T04:10:00.300Z,99286.40
2023-03-19T04:15:11.183Z,99295.64
2023-03-19T04:20:18.907Z,99290.56
2023-03-19T04:25:26.414Z,99287.98
2023-03-19T04:30:35.393Z,99284.73
2023-03-19T04:35:45.538Z,99279.02
2023-03-19T04:44:16.098Z,99280.39
2023-03-19T04:49:24.546Z,99277.34
2023-03-19T04:54:32.267Z,99273.67
2023-03-19T04:59:39.944Z,99269.52
2023-03-19T05:04:47.542Z,99284.16
2023-03-19T05:09:55.776Z,99282.48
2023-03-19T05:15:03.263Z,99288.64
2023-03-19T05:20:13.221Z,99283.56
2023-03-19T05:25:20.977Z,99280.45
2023-03-19T05:30:28.602Z,99281.16
2023-03-19T05:35:36.946Z,99274.34
2023-03-19T05:40:44.665Z,99272.79
2023-03-19T05:45:54.977Z,99265.30
2023-03-19T05:51:02.605Z,99273.16
2023-03-19T05:56:11.466Z,99277.40
2023-03-19T06:01:19.089Z,99268.80
2023-03-19T06:06:27.682Z,99269.63
2023-03-19T06:11:36.453Z,99274.44
2023-03-19T06:17:11.876Z,99279.20
2023-03-19T06:22:19.820Z,99276.39
2023-03-19T06:27:27.821Z,99283.56
2023-03-19T06:32:35.569Z,99290.82
2023-03-19T06:37:43.748Z,99294.48
2023-03-19T06:42:52.776Z,99296.85
2023-03-19T06:48:00.238Z,99306.34
2023-03-19T06:53:08.128Z,99313.39
2023-03-19T06:58:16.023Z,99315.29
2023-03-19T07:03:23.770Z,99317.48
2023-03-19T07:08:31.540Z,99313.11
2023-03-19T07:13:39.370Z,99308.36
2023-03-19T07:18:46.878Z,99308.30
2023-03-19T07:23:54.353Z,99301.27
2023-03-19T07:29:00.141Z,99306.52
2023-03-19T07:34:08.152Z,99306.95
2023-03-19T07:39:16.305Z,99299.96
2023-03-19T07:44:23.989Z,99301.98
2023-03-19T07:49:33.758Z,99303.77
2023-03-19T07:54:41.246Z,99310.70
2023-03-19T07:59:48.793Z,99305.62
2023-03-19T08:04:57.601Z,99303.21
2023-03-19T08:10:05.358Z,99295.47
2023-03-19T08:15:14.682Z,99290.47
2023-03-19T08:20:22.619Z,99285.76
2023-03-19T08:25:32.964Z,99284.80
2023-03-19T08:30:41.221Z,99283.72
2023-03-19T08:35:49.455Z,99280.16
2023-03-19T08:41:02.556Z,99281.35
2023-03-19T08:46:11.408Z,99274.42
2023-03-19T08:51:19.131Z,99275.67
2023-03-19T08:56:26.913Z,99274.90
2023-03-19T09:01:35.054Z,99278.06
2023-03-19T09:06:42.544Z,99275.13
2023-03-19T09:11:51.211Z,99283.38
2023-03-19T09:16:59.427Z,99290.41
2023-03-19T09:22:07.321Z,99284.61
2023-03-19T09:27:14.963Z,99280.11
2023-03-19T09:32:22.527Z,99276.95
2023-03-19T09:37:30.351Z,99274.30
2023-03-19T09:42:54.588Z,99265.27
2023-03-19T09:48:14.324Z,99262.77
2023-03-19T09:53:33.535Z,99248.47
2023-03-19T09:58:41.033Z,99252.67
2023-03-19T10:04:01.801Z,99249.40
2023-03-19T10:09:34.027Z,99244.00
2023-03-19T10:14:57.822Z,99245.83
2023-03-19T10:20:11.133Z,99239.21
2023-03-19T10:25:24.286Z,99234.79
2023-03-19T10:30:35.326Z,99229.91
2023-03-19T10:35:47.209Z,99218.98
2023-03-19T10:41:07.030Z,99212.73
2023-03-19T10:46:17.641Z,99206.55
2023-03-19T10:51:27.847Z,99193.48
2023-03-19T10:56:37.622Z,99188.59
2023-03-19T11:01:47.037Z,99183.60
2023-03-19T11:06:56.711Z,99177.50
2023-03-19T11:12:17.648Z,99178.42
2023-03-19T11:17:27.522Z,99169.14
2023-03-19T11:22:38.423Z,99168.66
2023-03-19T11:27:46.862Z,99165.49
2023-03-19T11:33:37.335Z,99161.70
2023-03-19T11:39:01.141Z,99147.98
2023-03-19T11:44:17.134Z,99144.84
2023-03-19T11:49:41.643Z,99139.21
2023-03-19T11:55:05.949Z,99125.09
2023-03-19T12:00:26.040Z,99115.57
2023-03-19T12:05:40.341Z,99114.03
2023-03-19T12:11:00.710Z,99116.28
2023-03-19T12:16:17.396Z,99115.91
2023-03-19T12:21:32.245Z,99109.27
2023-03-19T12:26:54.810Z,99108.04
2023-03-19T12:32:13.440Z,99097.73
2023-03-19T12:37:29.610Z,99090.60
2023-03-19T12:42:42.580Z,99078.50
2023-03-19T12:47:52.240Z,99069.21
2023-03-19T12:53:03.615Z,99062.29
2023-03-19T12:58:20.678Z,99063.20
2023-03-19T13:03:36.054Z,99057.59
2023-03-19T13:08:49.505Z,99055.91
2023-03-19T13:14:03.455Z,99054.99
2023-03-19T13:19:23.330Z,99050.27
2023-03-19T13:24:33.993Z,99043.00
2023-03-19T13:29:58.307Z,99040.45
2023-03-19T13:35:29.269Z,99041.44
2023-03-19T13:40:46.784Z,99037.77
2023-03-19T13:46:05.184Z,99035.26
2023-03-19T13:51:29.926Z,99031.84
2023-03-19T13:57:08.101Z,99031.17
2023-03-19T14:02:50.569Z,99027.13
2023-03-19T14:07:58.913Z,99025.70
2023-03-19T14:13:10.107Z,99024.02
2023-03-19T14:18:22.741Z,99020.21
2023-03-19T14:23:41.126Z,99018.39
2023-03-19T14:29:07.601Z,99023.07
2023-03-19T14:34:26.309Z,99022.73
2023-03-19T14:39:40.826Z,99012.77
2023-03-19T14:45:21.597Z,99015.60
2023-03-19T14:50:56.430Z,99015.42
2023-03-19T14:56:12.567Z,99016.73
2023-03-19T15:01:20.794Z,99015.13
2023-03-19T15:06:32.967Z,99014.19
2023-03-19T15:12:07.967Z,99010.04
2023-03-19T15:17:24.864Z,99009.16
2023-03-19T15:22:36.298Z,99012.87
2023-03-19T15:27:44.552Z,99008.75
2023-03-19T15:33:07.782Z,99004.75
2023-03-19T15:38:19.651Z,98998.61
2023-03-19T15:43:29.310Z,99001.78
2023-03-19T15:48:44.295Z,99012.61
2023-03-19T15:53:52.402Z,99014.35
2023-03-19T15:59:01.446Z,99019.23
2023-03-19T16:04:14.821Z,99019.11
2023-03-19T16:09:28.070Z,99019.66
2023-03-19T16:14:42.102Z,99021.45
2023-03-19T16:19:56.597Z,99030.47
2023-03-19T16:25:08.183Z,99030.44
2023-03-19T16:30:23.418Z,99030.85
2023-03-19T16:35:34.157Z,99038.20
2023-03-19T16:40:49.959Z,99041.23
2023-03-19T16:46:11.051Z,99045.23
2023-03-19T16:51:21.242Z,99041.04
2023-03-19T16:56:29.510Z,99037.98
2023-03-19T17:01:37.616Z,99043.88
2023-03-19T17:06:45.717Z,99051.39
2023-03-19T17:11:54.157Z,99056.28
2023-03-19T17:17:03.080Z,99066.59
2023-03-19T17:22:13.714Z,99069.72
2023-03-19T17:27:21.480Z,99066.04
2023-03-19T17:32:30.045Z,99068.33
2023-03-19T17:37:38.439Z,99064.86
2023-03-19T17:42:46.852Z,99064.67
2023-03-19T17:47:56.921Z,99069.94
2023-03-19T17:53:04.444Z,99068.65
2023-03-19T17:58:18.659Z,99073.34
2023-03-19T18:03:29.017Z,99076.87
2023-03-19T18:08:36.672Z,99071.58
2023-03-19T18:13:44.906Z,99064.47
2023-03-19T18:28:40.939Z,99075.38
2023-03-19T18:33:52.691Z,99075.40
2023-03-19T18:39:01.069Z,99076.52
2023-03-19T18:44:09.079Z,99083.34
2023-03-19T18:49:24.099Z,99081.15
2023-03-19T18:54:32.426Z,99086.73
2023-03-19T18:59:40.434Z,99088.42
2023-03-19T19:04:48.129Z,99085.52
2023-03-19T19:09:55.620Z,99088.91
2023-03-19T19:15:08.879Z,99086.97
2023-03-19T19:20:20.775Z,99089.52
2023-03-19T19:25:30.337Z,99091.47
2023-03-19T19:30:38.586Z,99092.69
2023-03-19T19:35:46.768Z,99093.48
2023-03-19T19:40:56.202Z,99092.59
2023-03-19T19:46:04.019Z,99097.16
2023-03-19T19:51:18.649Z,99096.30
2023-03-19T19:56:29.441Z,99098.48
2023-03-19T20:01:37.277Z,99102.73
2023-03-19T20:06:44.782Z,99098.74
2023-03-19T20:11:53.240Z,99097.42
2023-03-19T20:17:01.454Z,99103.38
2023-03-19T20:22:09.500Z,99098.69
2023-03-19T20:27:21.922Z,99097.58
2023-03-19T20:32:34.153Z,99102.02
2023-03-19T20:37:41.818Z,99102.52
2023-03-19T20:42:51.886Z,99101.54
2023-03-19T20:47:59.386Z,99103.86
2023-03-19T20:53:06.944Z,99099.79
2023-03-19T20:58:21.039Z,99091.51
2023-03-19T21:03:30.600Z,99091.89
2023-03-19T21:08:40.939Z,99089.99
2023-03-19T21:16:52.460Z,99095.89
2023-03-19T21:22:00.343Z,99101.16
2023-03-19T21:27:10.464Z,99103.68
2023-03-19T21:32:20.221Z,99100.86
2023-03-19T21:37:28.047Z,99098.89
2023-03-19T21:42:38.364Z,99102.34
2023-03-19T21:47:46.688Z,99108.64
2023-03-19T21:53:00.688Z,99100.44
2023-03-19T21:58:13.685Z,99097.78
2023-03-19T22:03:22.769Z,99100.31
2023-03-19T22:08:30.877Z,99098.68
2023-03-19T22:13:39.079Z,99101.67
2023-03-19T22:18:46.777Z,99099.28
2023-03-19T22:23:55.106Z,99093.20
2023-03-19T22:29:05.200Z,99092.95
2023-03-19T22:34:17.001Z,99089.20
2023-03-19T22:44:31.421Z,99091.41
2023-03-19T22:49:38.914Z,99084.61
2023-03-19T22:54:47.114Z,99092.72
2023-03-19T22:59:54.306Z,99094.77
2023-03-19T23:05:00.140Z,99096.49
2023-03-19T23:10:17.972Z,99093.59
2023-03-19T23:15:28.717Z,99091.46
2023-03-19T23:20:36.108Z,99090.00
2023-03-19T23:25:44.593Z,99092.54
2023-03-19T23:30:53.969Z,99091.66
2023-03-19T23:36:02.825Z,99089.96
2023-03-19T23:46:06.684Z,99085.38
2023-03-19T23:51:17.176Z,99083.90
2023-03-19T23:56:28.292Z,99084.48
